Time;durP1;ratioP1;P1;durP2;ratioP2;P2;SDS_P1;SDS_P2;PMS_P1;PMS_P2;Temp;Humidity;BMP_temperature;BMP_pressure;BME280_temperature;BME280_humidity;BME280_pressure;Samples;Min_cycle;Max_cycle;Signal;HPM_P1;HPM_P2
2021/08/18 00:00:49;;;;;;;1.38;1.17;;;20.00;99.90;;;;;;4987461;28;20232;-76
2021/08/18 00:03:16;;;;;;;1.95;1.08;;;20.00;99.90;;;;;;4988522;28;20221;-76
2021/08/18 00:05:45;;;;;;;1.17;1.08;;;20.00;99.90;;;;;;4990443;28;20224;-77
2021/08/18 00:08:13;;;;;;;1.08;0.95;;;20.00;99.90;;;;;;4989054;28;20745;-76
2021/08/18 00:10:42;;;;;;;1.05;0.90;;;20.00;99.90;;;;;;4983601;28;20635;-77
2021/08/18 00:13:11;;;;;;;1.20;1.10;;;20.00;99.90;;;;;;4986427;28;20315;-76
2021/08/18 00:15:39;;;;;;;1.20;1.10;;;19.90;99.90;;;;;;4986545;28;20738;-77
2021/08/18 00:18:06;;;;;;;1.30;1.13;;;19.90;99.90;;;;;;4986436;28;20229;-76
2021/08/18 00:20:34;;;;;;;0.95;0.90;;;19.90;99.90;;;;;;4993371;28;20229;-76
2021/08/18 00:23:03;;;;;;;1.10;1.00;;;19.80;99.90;;;;;;4991501;28;20866;-76
2021/08/18 00:25:30;;;;;;;0.98;0.98;;;19.80;99.90;;;;;;4991391;28;20235;-76
2021/08/18 00:27:57;;;;;;;1.10;1.08;;;19.80;99.90;;;;;;4992260;28;20224;-76
2021/08/18 00:30:25;;;;;;;1.88;0.80;;;19.80;99.90;;;;;;4994971;28;20598;-77
2021/08/18 00:32:52;;;;;;;1.20;1.10;;;19.80;99.90;;;;;;4990305;28;20270;-76
2021/08/18 00:35:19;;;;;;;0.90;0.90;;;19.80;99.90;;;;;;4991381;28;20221;-77
2021/08/18 00:37:46;;;;;;;1.30;1.13;;;19.80;99.90;;;;;;4994429;28;20729;-77
2021/08/18 00:40:16;;;;;;;1.08;1.00;;;19.80;99.90;;;;;;4993203;28;20225;-76
2021/08/18 00:42:44;;;;;;;1.00;0.90;;;19.70;99.90;;;;;;4992267;28;20232;-76
2021/08/18 00:45:14;;;;;;;1.10;1.00;;;19.70;99.90;;;;;;4991016;28;20232;-76
2021/08/18 00:47:44;;;;;;;1.20;1.10;;;19.70;99.90;;;;;;4992429;28;20251;-77
2021/08/18 00:50:13;;;;;;;1.30;1.17;;;19.70;99.90;;;;;;4989000;28;20233;-77
2021/08/18 00:52:40;;;;;;;1.42;1.33;;;19.70;99.90;;;;;;4991492;28;20228;-77
2021/08/18 00:55:10;;;;;;;2.03;0.93;;;19.70;99.90;;;;;;4993858;28;20224;-77
2021/08/18 00:57:39;;;;;;;1.45;1.13;;;19.70;99.90;;;;;;4992446;28;20213;-77
2021/08/18 01:00:09;;;;;;;1.27;1.13;;;19.80;99.90;;;;;;4987749;28;20283;-77
2021/08/18 01:02:38;;;;;;;1.45;1.35;;;19.80;99.90;;;;;;4993021;28;20858;-77
2021/08/18 01:05:08;;;;;;;1.27;1.17;;;19.70;99.90;;;;;;4985191;28;20220;-77
2021/08/18 01:07:36;;;;;;;0.98;0.85;;;19.70;99.90;;;;;;4994084;28;20267;-77
2021/08/18 01:10:05;;;;;;;0.90;0.90;;;19.70;99.90;;;;;;4986430;28;20233;-77
2021/08/18 01:12:33;;;;;;;0.85;0.85;;;19.70;99.90;;;;;;4987420;28;20311;-77
2021/08/18 01:15:03;;;;;;;1.13;0.85;;;19.70;99.90;;;;;;4992148;28;20224;-77
2021/08/18 01:17:34;;;;;;;1.13;1.00;;;19.60;99.90;;;;;;4988676;28;20260;-77
2021/08/18 01:20:02;;;;;;;2.63;1.10;;;19.60;99.90;;;;;;4986303;28;20288;-77
2021/08/18 01:22:30;;;;;;;3.90;1.30;;;19.60;99.90;;;;;;4984502;28;20244;-77
2021/08/18 01:24:57;;;;;;;1.10;1.00;;;19.60;99.90;;;;;;4993743;28;20297;-77
2021/08/18 01:27:25;;;;;;;2.05;1.48;;;19.60;99.90;;;;;;4992359;28;20348;-78
2021/08/18 01:29:53;;;;;;;1.20;1.10;;;19.50;99.90;;;;;;4993562;28;20274;-77
2021/08/18 01:32:20;;;;;;;1.38;1.15;;;19.50;99.90;;;;;;4989735;28;20271;-78
2021/08/18 01:34:47;;;;;;;1.10;1.00;;;19.50;99.90;;;;;;4993990;28;20302;-77
2021/08/18 01:37:14;;;;;;;3.75;0.98;;;19.50;99.90;;;;;;4990712;28;20271;-77
2021/08/18 01:39:41;;;;;;;0.88;0.88;;;19.50;99.90;;;;;;4987745;28;20228;-77
2021/08/18 01:42:09;;;;;;;1.02;0.90;;;19.50;99.90;;;;;;4991232;28;20233;-77
2021/08/18 01:44:36;;;;;;;1.45;1.02;;;19.50;99.90;;;;;;4988427;28;20218;-77
2021/08/18 01:47:05;;;;;;;0.95;0.90;;;19.40;99.90;;;;;;4996175;28;20239;-77
2021/08/18 01:49:32;;;;;;;1.55;0.98;;;19.40;99.90;;;;;;4997414;28;20262;-78
2021/08/18 01:51:59;;;;;;;1.20;1.10;;;19.50;99.90;;;;;;4995658;28;20295;-78
2021/08/18 01:54:26;;;;;;;1.30;1.20;;;19.40;99.90;;;;;;4996462;28;20283;-78
2021/08/18 01:56:53;;;;;;;1.00;1.00;;;19.40;99.90;;;;;;4992399;28;20224;-77
2021/08/18 01:59:20;;;;;;;1.42;1.17;;;19.40;99.90;;;;;;4990812;28;20228;-78
2021/08/18 02:01:47;;;;;;;1.25;1.15;;;19.30;99.90;;;;;;4988256;28;21348;-78
2021/08/18 02:04:16;;;;;;;1.10;1.00;;;19.30;99.90;;;;;;4991169;28;20228;-77
2021/08/18 02:06:43;;;;;;;1.30;1.20;;;19.30;99.90;;;;;;4989719;28;20224;-77
2021/08/18 02:09:10;;;;;;;1.13;1.02;;;19.30;99.90;;;;;;4994974;28;20299;-77
2021/08/18 02:11:37;;;;;;;1.23;1.13;;;19.20;99.90;;;;;;4993929;28;20228;-78
2021/08/18 02:14:04;;;;;;;1.30;1.20;;;19.20;99.90;;;;;;4990058;28;20705;-79
2021/08/18 02:16:31;;;;;;;1.30;1.20;;;19.20;99.90;;;;;;4993383;28;20640;-77
2021/08/18 02:18:59;;;;;;;1.20;1.10;;;19.20;99.90;;;;;;4993475;28;20236;-77
2021/08/18 02:21:27;;;;;;;1.38;1.27;;;19.10;99.90;;;;;;4989205;28;20237;-78
2021/08/18 02:23:54;;;;;;;1.25;1.15;;;19.10;99.90;;;;;;4988672;28;20295;-77
2021/08/18 02:26:21;;;;;;;1.17;1.08;;;19.10;99.90;;;;;;4992144;28;20228;-77
2021/08/18 02:28:48;;;;;;;1.13;1.02;;;19.10;99.90;;;;;;4989827;28;20220;-77
2021/08/18 02:31:15;;;;;;;1.27;1.17;;;19.00;99.90;;;;;;4983908;28;20655;-77
2021/08/18 02:33:42;;;;;;;1.45;1.35;;;19.00;99.90;;;;;;4991294;28;20232;-76
2021/08/18 02:36:09;;;;;;;1.58;1.48;;;18.90;99.90;;;;;;4988971;28;20228;-77
2021/08/18 02:38:38;;;;;;;1.45;1.20;;;18.90;99.90;;;;;;4991946;28;20231;-77
2021/08/18 02:41:05;;;;;;;1.00;1.00;;;18.90;99.90;;;;;;4992463;28;20286;-77
2021/08/18 02:43:32;;;;;;;1.27;1.17;;;18.80;99.90;;;;;;4988113;28;20302;-77
2021/08/18 02:45:59;;;;;;;1.38;1.27;;;18.80;99.90;;;;;;4991790;28;20240;-77
2021/08/18 02:48:26;;;;;;;1.30;1.20;;;18.80;99.90;;;;;;4993574;28;20228;-78
2021/08/18 02:50:54;;;;;;;1.70;1.38;;;18.80;99.90;;;;;;4994654;28;20220;-76
2021/08/18 02:53:21;;;;;;;1.25;1.15;;;18.80;99.90;;;;;;4984274;28;20232;-77
2021/08/18 02:55:49;;;;;;;1.30;1.15;;;18.80;99.90;;;;;;4996436;28;20228;-77
2021/08/18 02:58:16;;;;;;;1.80;1.25;;;18.80;99.90;;;;;;4988877;28;20240;-77
2021/08/18 03:00:43;;;;;;;1.50;1.40;;;18.80;99.90;;;;;;4997914;28;20228;-77
2021/08/18 03:03:10;;;;;;;1.30;1.20;;;18.80;99.90;;;;;;4987538;28;20224;-78
2021/08/18 03:05:38;;;;;;;1.77;1.55;;;18.70;99.90;;;;;;4995932;28;20232;-78
2021/08/18 03:08:05;;;;;;;1.50;1.40;;;18.70;99.90;;;;;;4995138;28;20286;-78
2021/08/18 03:10:32;;;;;;;1.55;1.45;;;18.60;99.90;;;;;;4992161;28;20285;-77
2021/08/18 03:13:01;;;;;;;1.50;1.40;;;18.60;99.90;;;;;;4994302;28;20243;-77
2021/08/18 03:15:28;;;;;;;1.40;1.30;;;18.50;99.90;;;;;;4987361;28;20231;-77
2021/08/18 03:17:55;;;;;;;1.50;1.40;;;18.60;99.90;;;;;;4990319;28;20278;-77
2021/08/18 03:20:22;;;;;;;1.95;1.50;;;18.60;99.90;;;;;;4986454;28;20224;-78
2021/08/18 03:22:49;;;;;;;1.40;1.30;;;18.50;99.90;;;;;;4993574;28;20232;-77
2021/08/18 03:25:17;;;;;;;1.48;1.38;;;18.50;99.90;;;;;;4990298;28;21261;-77
2021/08/18 03:27:44;;;;;;;1.40;1.30;;;18.60;99.90;;;;;;4987428;28;20220;-77
2021/08/18 03:30:13;;;;;;;1.73;1.50;;;18.50;99.90;;;;;;4990456;28;20279;-77
2021/08/18 03:32:40;;;;;;;1.48;1.38;;;18.50;99.90;;;;;;4990276;28;21168;-77
2021/08/18 03:35:08;;;;;;;2.95;1.58;;;18.40;99.90;;;;;;4991481;28;20267;-77
2021/08/18 03:37:35;;;;;;;1.55;1.45;;;18.40;99.90;;;;;;4991329;28;20221;-78
2021/08/18 03:40:02;;;;;;;1.40;1.30;;;18.40;99.90;;;;;;4988641;28;20225;-77
2021/08/18 03:42:29;;;;;;;1.90;1.80;;;18.40;99.90;;;;;;4988482;28;20247;-77
2021/08/18 03:44:56;;;;;;;1.60;1.50;;;18.40;99.90;;;;;;4990257;28;20294;-77
2021/08/18 03:47:25;;;;;;;1.60;1.50;;;18.40;99.90;;;;;;4989007;28;20271;-78
2021/08/18 03:49:52;;;;;;;1.70;1.48;;;18.40;99.90;;;;;;4991780;28;20678;-77
2021/08/18 03:52:19;;;;;;;1.50;1.20;;;18.40;99.90;;;;;;4987993;28;20299;-77
2021/08/18 03:54:46;;;;;;;1.60;1.50;;;18.40;99.90;;;;;;4989727;28;20228;-77
2021/08/18 03:57:13;;;;;;;1.90;1.40;;;18.30;99.90;;;;;;4989725;28;20275;-77
2021/08/18 03:59:40;;;;;;;1.38;1.27;;;18.40;99.90;;;;;;4990398;28;20233;-77
2021/08/18 04:02:07;;;;;;;1.45;1.35;;;18.40;99.90;;;;;;4980646;28;20694;-77
2021/08/18 04:04:36;;;;;;;1.70;1.60;;;18.40;99.90;;;;;;4983146;28;20734;-78
2021/08/18 04:07:03;;;;;;;2.58;1.50;;;18.40;99.90;;;;;;4985030;28;20702;-77
2021/08/18 04:09:30;;;;;;;1.38;1.27;;;18.40;99.90;;;;;;4981703;28;20796;-78
2021/08/18 04:12:16;;;;;;;2.00;1.40;;;18.40;99.90;;;;;;4983944;28;20294;-77
2021/08/18 04:14:43;;;;;;;1.98;1.33;;;18.40;99.90;;;;;;4993475;28;20274;-76
2021/08/18 04:17:10;;;;;;;1.85;1.52;;;18.40;99.90;;;;;;4983615;28;20252;-77
2021/08/18 04:19:38;;;;;;;2.13;1.60;;;18.40;99.90;;;;;;4987476;28;20248;-77
2021/08/18 04:22:05;;;;;;;2.53;1.40;;;18.40;99.90;;;;;;4985885;28;20909;-77
2021/08/18 04:24:33;;;;;;;2.33;1.40;;;18.40;99.90;;;;;;4986607;28;20259;-76
2021/08/18 04:27:01;;;;;;;1.55;1.45;;;18.40;99.90;;;;;;4988753;28;20775;-77
2021/08/18 04:29:28;;;;;;;1.67;1.58;;;18.40;99.90;;;;;;4983529;28;20678;-77
2021/08/18 04:31:57;;;;;;;1.70;1.60;;;18.40;99.90;;;;;;4988119;28;20240;-77
2021/08/18 04:34:24;;;;;;;1.42;1.30;;;18.30;99.90;;;;;;4985847;28;20220;-77
2021/08/18 04:36:52;;;;;;;1.45;1.35;;;18.30;99.90;;;;;;4986789;28;20231;-77
2021/08/18 04:39:19;;;;;;;1.85;1.55;;;18.30;99.90;;;;;;4987165;28;20229;-77
2021/08/18 04:41:46;;;;;;;1.65;1.55;;;18.30;99.90;;;;;;4982168;28;20223;-77
2021/08/18 04:44:14;;;;;;;1.77;1.50;;;18.30;99.90;;;;;;4987763;28;20229;-77
2021/08/18 04:46:41;;;;;;;1.95;1.75;;;18.30;99.90;;;;;;4982906;28;20642;-77
2021/08/18 04:49:08;;;;;;;1.75;1.65;;;18.40;99.90;;;;;;4986314;28;20217;-77
2021/08/18 04:51:35;;;;;;;1.98;1.88;;;18.40;99.90;;;;;;4983167;28;20217;-77
2021/08/18 04:54:03;;;;;;;1.75;1.65;;;18.30;99.90;;;;;;4987556;28;20274;-78
2021/08/18 04:56:30;;;;;;;1.50;1.40;;;18.30;99.90;;;;;;4989209;28;20227;-77
2021/08/18 04:58:57;;;;;;;1.50;1.40;;;18.30;99.90;;;;;;4985090;28;20961;-77
2021/08/18 05:01:24;;;;;;;1.85;1.75;;;18.20;99.90;;;;;;4990642;28;20287;-77
2021/08/18 05:03:51;;;;;;;2.65;1.77;;;18.20;99.90;;;;;;4982519;28;20228;-77
2021/08/18 05:06:18;;;;;;;2.83;1.80;;;18.30;99.90;;;;;;4988572;28;20229;-77
2021/08/18 05:08:45;;;;;;;2.40;1.73;;;18.50;99.90;;;;;;4987972;28;20224;-77
2021/08/18 05:11:14;;;;;;;2.90;1.60;;;18.70;99.90;;;;;;4991524;28;20646;-77
2021/08/18 05:13:41;;;;;;;1.70;1.60;;;18.80;99.90;;;;;;4985234;28;20223;-77
2021/08/18 05:16:08;;;;;;;2.00;1.80;;;19.00;99.90;;;;;;4989046;28;20216;-77
2021/08/18 05:18:35;;;;;;;2.78;1.50;;;19.20;99.90;;;;;;4985461;28;20225;-77
2021/08/18 05:21:02;;;;;;;2.35;1.88;;;19.30;99.90;;;;;;4992606;28;20279;-78
2021/08/18 05:23:29;;;;;;;2.78;1.80;;;19.50;99.90;;;;;;4995649;28;20245;-77
2021/08/18 05:25:56;;;;;;;2.20;2.00;;;19.60;99.90;;;;;;4991414;28;20692;-77
2021/08/18 05:28:24;;;;;;;1.92;1.75;;;19.70;99.90;;;;;;4990321;28;20279;-77
2021/08/18 05:30:51;;;;;;;2.05;1.85;;;19.80;99.90;;;;;;4994559;28;20227;-77
2021/08/18 05:33:18;;;;;;;2.53;2.08;;;19.90;99.90;;;;;;4988176;28;20703;-76
2021/08/18 05:35:45;;;;;;;2.25;2.05;;;20.00;99.90;;;;;;4991854;28;20641;-77
2021/08/18 05:38:13;;;;;;;2.10;1.95;;;20.10;99.90;;;;;;4995201;28;20702;-78
2021/08/18 05:40:40;;;;;;;2.15;1.95;;;20.20;99.90;;;;;;4993768;28;20224;-77
2021/08/18 05:43:07;;;;;;;2.05;1.85;;;20.40;99.90;;;;;;5000022;28;20237;-80
2021/08/18 05:45:36;;;;;;;1.77;1.67;;;20.20;99.90;;;;;;4999058;28;20228;-80
2021/08/18 05:48:03;;;;;;;1.58;1.48;;;19.90;99.90;;;;;;5001691;28;20232;-80
2021/08/18 05:50:31;;;;;;;2.05;1.85;;;19.60;99.90;;;;;;4998287;28;20264;-80
2021/08/18 05:52:58;;;;;;;2.25;1.83;;;19.60;99.90;;;;;;4997895;28;20263;-80
2021/08/18 05:55:26;;;;;;;2.28;1.80;;;19.90;99.90;;;;;;4998083;28;20235;-80
2021/08/18 05:57:53;;;;;;;1.70;1.60;;;20.30;99.90;;;;;;5000051;28;20232;-80
2021/08/18 06:00:20;;;;;;;1.85;1.75;;;20.70;99.90;;;;;;4991366;28;20232;-81
2021/08/18 06:02:49;;;;;;;1.98;1.77;;;21.10;99.90;;;;;;5004022;28;20705;-80
2021/08/18 06:05:16;;;;;;;2.08;1.95;;;21.30;99.90;;;;;;4996520;28;20221;-82
2021/08/18 06:07:43;;;;;;;1.73;1.60;;;21.40;99.90;;;;;;5004347;28;20223;-81
2021/08/18 06:10:10;;;;;;;3.30;2.10;;;21.50;99.90;;;;;;4997598;28;20259;-83
2021/08/18 06:12:37;;;;;;;2.00;1.80;;;21.50;99.90;;;;;;4995516;28;20669;-80
2021/08/18 06:15:05;;;;;;;3.60;2.28;;;21.50;99.90;;;;;;4990088;28;20236;-81
2021/08/18 06:17:33;;;;;;;3.95;2.13;;;21.50;99.90;;;;;;5000402;28;20231;-80
2021/08/18 06:20:02;;;;;;;3.05;2.10;;;21.60;99.90;;;;;;4997301;28;20236;-82
2021/08/18 06:22:29;;;;;;;3.45;2.15;;;21.60;99.90;;;;;;4991051;28;20243;-81
2021/08/18 06:25:02;;;;;;;2.75;2.10;;;21.40;99.90;;;;;;4993438;28;20232;-80
2021/08/18 06:27:30;;;;;;;3.40;2.03;;;21.40;99.90;;;;;;4996700;28;20229;-80
2021/08/18 06:29:57;;;;;;;4.10;2.10;;;21.30;99.90;;;;;;5000054;28;20221;-80
2021/08/18 06:32:25;;;;;;;2.60;1.95;;;21.30;99.90;;;;;;4991562;28;20225;-82
2021/08/18 06:34:53;;;;;;;3.47;2.13;;;21.30;99.90;;;;;;4999115;28;20235;-82
2021/08/18 06:37:22;;;;;;;2.47;2.08;;;21.30;99.90;;;;;;4998837;28;20311;-82
2021/08/18 06:39:50;;;;;;;3.75;2.05;;;21.40;99.90;;;;;;5000366;28;20235;-81
2021/08/18 06:42:17;;;;;;;3.90;2.38;;;21.40;99.90;;;;;;4995989;28;20296;-82
2021/08/18 06:44:44;;;;;;;2.75;2.40;;;21.50;99.90;;;;;;5004795;28;20547;-80
2021/08/18 06:47:12;;;;;;;3.25;2.15;;;21.60;99.90;;;;;;4996631;28;20221;-82
2021/08/18 06:49:39;;;;;;;2.30;2.10;;;21.70;99.90;;;;;;4997612;28;20319;-79
2021/08/18 06:52:06;;;;;;;2.88;2.20;;;21.80;99.90;;;;;;4996175;28;20224;-84
2021/08/18 06:54:35;;;;;;;5.93;2.58;;;22.00;99.90;;;;;;5000074;28;20251;-80
2021/08/18 06:57:02;;;;;;;2.85;2.08;;;22.10;99.90;;;;;;4992630;28;20234;-81
2021/08/18 06:59:30;;;;;;;2.47;2.03;;;22.30;99.90;;;;;;4996646;28;20263;-80
2021/08/18 07:01:57;;;;;;;4.05;2.60;;;22.40;99.90;;;;;;4977786;28;20366;-82
2021/08/18 07:04:25;;;;;;;2.22;2.00;;;22.40;99.90;;;;;;4994865;28;20232;-81
2021/08/18 07:06:52;;;;;;;3.45;2.67;;;22.60;99.90;;;;;;4996504;28;20216;-83
2021/08/18 07:09:19;;;;;;;3.17;2.40;;;22.90;99.90;;;;;;5000223;28;20232;-80
2021/08/18 07:11:47;;;;;;;3.30;2.55;;;23.00;99.90;;;;;;4992623;28;20216;-83
2021/08/18 07:14:15;;;;;;;3.95;2.88;;;23.00;99.90;;;;;;4998045;28;20288;-85
2021/08/18 07:16:42;;;;;;;3.05;2.63;;;22.80;99.90;;;;;;4999890;28;20227;-79
2021/08/18 07:19:09;;;;;;;9.27;2.45;;;22.60;99.90;;;;;;5000165;28;20227;-81
2021/08/18 07:21:36;;;;;;;4.18;2.35;;;22.60;99.90;;;;;;4996631;28;20228;-81
2021/08/18 07:24:03;;;;;;;3.47;2.90;;;22.80;99.90;;;;;;4999100;28;20236;-80
2021/08/18 07:26:31;;;;;;;2.90;2.50;;;22.70;99.90;;;;;;4999440;28;20228;-81
2021/08/18 07:29:00;;;;;;;3.50;2.28;;;22.50;99.90;;;;;;4995220;28;20244;-80
2021/08/18 07:31:28;;;;;;;2.95;2.40;;;22.80;99.90;;;;;;4992648;28;21616;-80
2021/08/18 07:33:55;;;;;;;3.30;2.60;;;22.80;99.90;;;;;;5000366;28;20216;-80
2021/08/18 07:36:23;;;;;;;3.55;2.60;;;22.70;99.90;;;;;;5001218;28;21877;-80
2021/08/18 07:38:50;;;;;;;3.08;2.50;;;22.70;99.90;;;;;;4996333;28;20247;-82
2021/08/18 07:41:17;;;;;;;3.47;2.80;;;22.80;99.90;;;;;;4992625;28;20246;-81
2021/08/18 07:43:44;;;;;;;4.50;2.92;;;23.00;99.90;;;;;;4993773;28;20229;-81
2021/08/18 07:46:13;;;;;;;3.33;2.83;;;23.10;99.90;;;;;;4997239;28;20228;-80
2021/08/18 07:48:40;;;;;;;3.05;2.72;;;23.10;99.90;;;;;;4994613;28;20736;-82
2021/08/18 07:51:07;;;;;;;3.10;2.60;;;23.10;99.90;;;;;;4997905;28;20715;-80
2021/08/18 07:53:39;;;;;;;2.65;2.40;;;23.20;99.90;;;;;;4995928;28;20227;-79
2021/08/18 07:56:06;;;;;;;2.83;2.38;;;23.30;99.90;;;;;;5001390;28;20236;-81
2021/08/18 07:58:34;;;;;;;4.00;3.10;;;23.30;99.90;;;;;;4994927;28;20225;-81
2021/08/18 08:01:01;;;;;;;3.22;2.70;;;23.30;99.90;;;;;;4994066;28;20496;-81
2021/08/18 08:03:29;;;;;;;3.28;2.88;;;23.30;99.90;;;;;;4995916;28;20299;-80
2021/08/18 08:05:56;;;;;;;3.50;2.72;;;23.40;99.90;;;;;;4997934;28;20231;-80
2021/08/18 08:08:23;;;;;;;3.50;2.70;;;23.40;99.90;;;;;;4997307;28;20258;-80
2021/08/18 08:10:51;;;;;;;2.90;2.60;;;23.50;99.90;;;;;;4989078;28;20241;-80
2021/08/18 08:13:18;;;;;;;4.85;2.72;;;23.50;99.90;;;;;;4998505;28;20235;-83
2021/08/18 08:15:45;;;;;;;3.08;2.65;;;23.60;99.90;;;;;;4994656;28;20228;-80
2021/08/18 08:18:12;;;;;;;4.20;2.63;;;23.60;99.90;;;;;;4996798;28;20237;-81
2021/08/18 08:20:41;;;;;;;3.35;2.80;;;23.80;99.90;;;;;;4993972;28;20228;-81
2021/08/18 08:23:08;;;;;;;2.80;2.60;;;24.00;99.90;;;;;;4982315;28;20272;-80
2021/08/18 08:25:35;;;;;;;2.90;2.47;;;24.10;99.90;;;;;;4996072;28;20229;-80
2021/08/18 08:28:03;;;;;;;3.88;2.70;;;24.20;99.90;;;;;;4996804;28;20896;-80
2021/08/18 08:30:30;;;;;;;3.10;2.80;;;24.40;99.90;;;;;;4985444;28;20231;-80
2021/08/18 08:32:57;;;;;;;3.30;2.72;;;24.50;99.90;;;;;;4991713;28;20233;-80
2021/08/18 08:35:27;;;;;;;3.78;2.70;;;24.60;99.90;;;;;;4995655;28;20220;-81
2021/08/18 08:37:55;;;;;;;3.20;2.90;;;24.60;99.90;;;;;;4988840;28;20221;-82
2021/08/18 08:40:23;;;;;;;3.38;2.75;;;24.50;99.90;;;;;;4989893;28;20223;-80
2021/08/18 08:42:51;;;;;;;2.80;2.58;;;24.60;99.90;;;;;;4987281;28;20228;-82
2021/08/18 08:45:18;;;;;;;3.03;2.70;;;24.90;99.90;;;;;;4986477;28;20633;-82
2021/08/18 08:47:45;;;;;;;3.40;3.10;;;25.20;99.90;;;;;;4983412;28;20712;-82
2021/08/18 08:50:15;;;;;;;3.08;2.50;;;25.30;99.90;;;;;;4987593;28;20271;-83
2021/08/18 08:52:42;;;;;;;3.30;2.60;;;25.40;99.90;;;;;;4979451;28;20220;-82
2021/08/18 08:55:12;;;;;;;4.25;3.10;;;25.40;99.90;;;;;;4981385;28;20291;-80
2021/08/18 08:57:50;;;;;;;2.88;2.55;;;25.30;99.90;;;;;;4985003;28;20232;-80
2021/08/18 09:00:17;;;;;;;3.05;2.72;;;25.20;99.90;;;;;;4983033;28;20299;-84
2021/08/18 09:02:46;;;;;;;4.35;3.00;;;25.20;99.90;;;;;;4982440;28;20764;-84
2021/08/18 09:05:26;;;;;;;4.35;2.83;;;25.30;99.90;;;;;;4980654;28;20225;-84
2021/08/18 09:07:58;;;;;;;3.30;3.00;;;25.40;99.90;;;;;;4986991;28;20222;-84
2021/08/18 09:10:27;;;;;;;3.40;3.10;;;25.40;99.90;;;;;;4982660;28;20236;-85
2021/08/18 09:13:12;;;;;;;3.38;3.08;;;25.40;99.90;;;;;;4980989;28;20631;-84
2021/08/18 09:15:39;;;;;;;3.45;2.92;;;25.60;99.90;;;;;;4982107;28;20232;-79
2021/08/18 09:18:06;;;;;;;3.95;3.58;;;25.90;99.90;;;;;;4985013;28;20228;-83
2021/08/18 09:20:38;;;;;;;3.38;3.05;;;25.80;99.90;;;;;;4981948;28;20224;-82
2021/08/18 09:23:05;;;;;;;3.15;2.85;;;25.90;99.90;;;;;;4981831;28;20227;-81
2021/08/18 09:25:38;;;;;;;3.20;2.90;;;26.00;99.90;;;;;;4982797;28;20239;-85
2021/08/18 09:28:21;;;;;;;4.53;3.10;;;26.20;99.90;;;;;;4983504;28;20255;-85
2021/08/18 09:30:57;;;;;;;3.42;3.13;;;26.40;99.90;;;;;;4980709;28;20323;-84
2021/08/18 09:33:33;;;;;;;3.30;2.72;;;26.70;99.90;;;;;;4981724;28;20223;-84
2021/08/18 09:36:00;;;;;;;4.82;3.15;;;27.00;99.90;;;;;;4980465;28;20219;-83
2021/08/18 09:38:28;;;;;;;3.67;3.10;;;26.80;99.90;;;;;;4982292;28;20381;-81
2021/08/18 09:40:57;;;;;;;3.30;3.00;;;26.70;99.90;;;;;;4986287;28;20285;-83
2021/08/18 09:43:25;;;;;;;3.28;2.95;;;26.60;99.90;;;;;;4980294;28;20286;-82
2021/08/18 09:45:57;;;;;;;3.08;2.78;;;26.60;99.90;;;;;;4982513;28;20227;-83
2021/08/18 09:48:26;;;;;;;3.45;3.15;;;26.80;99.90;;;;;;4984002;28;20225;-82
2021/08/18 09:50:55;;;;;;;3.80;3.30;;;27.20;99.90;;;;;;4982585;28;20852;-86
2021/08/18 09:53:25;;;;;;;4.00;3.15;;;27.10;99.90;;;;;;4979852;28;20634;-84
2021/08/18 09:55:57;;;;;;;3.70;3.28;;;27.00;99.90;;;;;;4983652;28;20220;-83
2021/08/18 09:58:27;;;;;;;4.10;3.40;;;26.90;99.90;;;;;;4982110;28;20221;-84
2021/08/18 10:00:55;;;;;;;4.50;3.70;;;26.70;99.90;;;;;;4980433;28;20239;-85
2021/08/18 10:03:23;;;;;;;3.75;3.30;;;26.70;99.90;;;;;;4976721;28;20282;-82
2021/08/18 10:05:53;;;;;;;3.47;2.92;;;27.00;99.90;;;;;;4987182;28;20228;-84
2021/08/18 10:08:21;;;;;;;3.50;3.20;;;27.30;99.90;;;;;;4977805;28;20224;-86
2021/08/18 10:10:49;;;;;;;3.33;3.03;;;27.50;99.90;;;;;;4982177;28;20753;-84
2021/08/18 10:13:18;;;;;;;3.30;3.00;;;27.60;99.90;;;;;;4980388;28;20266;-83
2021/08/18 10:15:45;;;;;;;3.28;2.97;;;27.50;99.90;;;;;;4982312;28;20652;-84
2021/08/18 10:18:26;;;;;;;5.03;3.15;;;27.60;99.90;;;;;;4976255;28;20224;-82
2021/08/18 10:20:57;;;;;;;3.40;2.95;;;27.70;99.90;;;;;;4974656;28;20236;-85
2021/08/18 10:23:44;;;;;;;3.22;2.92;;;27.80;99.90;;;;;;4977137;28;20599;-84
2021/08/18 10:26:54;;;;;;;3.50;3.00;;;27.80;99.90;;;;;;4976320;28;20224;-83
2021/08/18 10:29:38;;;;;;;3.70;3.40;;;27.90;99.90;;;;;;4978559;28;20229;-80
2021/08/18 10:32:08;;;;;;;6.10;2.85;;;27.70;99.90;;;;;;4980244;28;20279;-82
2021/08/18 10:34:47;;;;;;;3.55;3.25;;;27.60;99.90;;;;;;4987690;28;20646;-84
2021/08/18 10:37:20;;;;;;;3.15;2.92;;;27.70;99.90;;;;;;4978022;28;20583;-79
2021/08/18 10:39:55;;;;;;;3.33;2.80;;;27.80;99.90;;;;;;4975472;28;20232;-80
2021/08/18 10:42:38;;;;;;;3.63;2.92;;;28.20;99.90;;;;;;4980155;28;20234;-85
2021/08/18 10:45:38;;;;;;;3.20;2.90;;;28.30;99.90;;;;;;4982297;28;20423;-84
2021/08/18 10:48:07;;;;;;;4.05;3.28;;;28.40;99.90;;;;;;4976250;28;20325;-83
2021/08/18 10:50:46;;;;;;;3.45;3.08;;;28.30;99.90;;;;;;4983553;28;20698;-83
2021/08/18 10:53:33;;;;;;;3.45;2.95;;;28.00;99.90;;;;;;4978746;28;20219;-83
2021/08/18 10:56:00;;;;;;;3.35;3.05;;;27.50;99.90;;;;;;4985298;28;20461;-83
2021/08/18 10:58:34;;;;;;;3.17;2.45;;;27.30;99.90;;;;;;4982735;28;20228;-84
2021/08/18 11:01:01;;;;;;;4.00;3.13;;;27.80;99.90;;;;;;4978753;28;20325;-85
2021/08/18 11:03:31;;;;;;;3.00;2.70;;;28.30;99.90;;;;;;4978783;28;20232;-86
2021/08/18 11:05:59;;;;;;;2.80;2.58;;;28.30;99.90;;;;;;4989139;28;20232;-85
2021/08/18 11:08:27;;;;;;;3.33;3.00;;;28.10;99.90;;;;;;4974092;28;20239;-81
2021/08/18 11:11:15;;;;;;;3.00;2.80;;;27.80;99.90;;;;;;4982381;28;20221;-80
2021/08/18 11:13:45;;;;;;;2.90;2.67;;;28.00;99.90;;;;;;4981279;28;20232;-77
2021/08/18 11:16:16;;;;;;;3.65;2.85;;;28.00;99.90;;;;;;4978983;28;21076;-79
2021/08/18 11:18:52;;;;;;;3.80;2.90;;;27.80;99.90;;;;;;4980575;28;20793;-84
2021/08/18 11:21:23;;;;;;;3.60;3.30;;;27.90;99.90;;;;;;4974537;28;20781;-78
2021/08/18 11:23:52;;;;;;;3.55;2.97;;;28.30;99.90;;;;;;4980382;28;20238;-79
2021/08/18 11:26:22;;;;;;;3.75;3.10;;;28.50;99.90;;;;;;4973208;28;20279;-79
2021/08/18 11:29:08;;;;;;;3.45;3.15;;;28.80;99.90;;;;;;4982189;28;20231;-82
2021/08/18 11:31:45;;;;;;;3.45;3.08;;;28.90;99.90;;;;;;4979042;28;20216;-83
2021/08/18 11:34:21;;;;;;;3.58;3.10;;;28.70;99.90;;;;;;4980017;28;20251;-81
2021/08/18 11:36:48;;;;;;;3.97;3.20;;;28.80;99.90;;;;;;4978415;28;20220;-84
2021/08/18 11:39:17;;;;;;;3.50;3.20;;;29.00;99.90;;;;;;4982357;28;20232;-81
2021/08/18 11:41:47;;;;;;;3.75;3.25;;;29.00;99.90;;;;;;4978320;28;20236;-80
2021/08/18 11:44:27;;;;;;;5.63;3.42;;;28.70;99.90;;;;;;4978006;28;20291;-80
2021/08/18 11:46:55;;;;;;;4.85;3.13;;;28.50;99.90;;;;;;4975862;28;20574;-81
2021/08/18 11:49:25;;;;;;;3.25;2.95;;;28.50;99.90;;;;;;4982159;28;20224;-83
2021/08/18 11:51:53;;;;;;;3.90;3.30;;;28.70;99.90;;;;;;4978108;28;20228;-80
2021/08/18 11:54:24;;;;;;;3.90;3.25;;;28.90;99.90;;;;;;4980601;28;20228;-79
2021/08/18 11:57:03;;;;;;;3.25;2.95;;;29.00;99.90;;;;;;4976048;28;20220;-81
2021/08/18 11:59:32;;;;;;;3.28;2.97;;;29.00;99.90;;;;;;4975246;28;20299;-83
2021/08/18 12:01:59;;;;;;;3.75;2.90;;;28.90;99.90;;;;;;4980315;28;20227;-82
2021/08/18 12:04:27;;;;;;;3.20;2.90;;;29.00;99.90;;;;;;4981835;28;20283;-79
2021/08/18 12:07:10;;;;;;;3.03;2.72;;;29.00;99.90;;;;;;4976852;28;20232;-80
2021/08/18 12:09:38;;;;;;;3.35;3.05;;;28.90;99.90;;;;;;4977875;28;20232;-85
2021/08/18 12:12:09;;;;;;;3.28;2.97;;;29.00;99.90;;;;;;4973203;28;20295;-84
2021/08/18 12:14:43;;;;;;;2.80;2.60;;;29.20;99.90;;;;;;4970415;28;20222;-83
2021/08/18 12:17:10;;;;;;;3.58;3.17;;;29.40;99.90;;;;;;4974672;28;20221;-84
2021/08/18 12:19:39;;;;;;;2.95;2.65;;;29.60;99.90;;;;;;4976277;28;20284;-85
2021/08/18 12:22:15;;;;;;;3.35;3.05;;;29.70;99.90;;;;;;4974443;28;20274;-82
2021/08/18 12:24:45;;;;;;;3.35;3.05;;;29.60;99.90;;;;;;4974899;28;20224;-84
2021/08/18 12:27:15;;;;;;;4.78;2.80;;;29.30;99.90;;;;;;4974974;28;20618;-83
2021/08/18 12:29:45;;;;;;;3.13;2.83;;;29.10;99.90;;;;;;4974879;28;20778;-85
2021/08/18 12:32:13;;;;;;;3.65;2.80;;;29.10;99.90;;;;;;4974578;28;20248;-83
2021/08/18 12:34:42;;;;;;;3.25;2.95;;;29.40;99.90;;;;;;4974570;28;20220;-84
2021/08/18 12:37:12;;;;;;;3.10;2.72;;;29.50;99.90;;;;;;4973863;28;20243;-82
2021/08/18 12:39:42;;;;;;;3.00;2.70;;;29.30;99.90;;;;;;4972033;28;20236;-80
2021/08/18 12:42:10;;;;;;;3.85;3.55;;;29.30;99.90;;;;;;4976221;28;20240;-83
2021/08/18 12:44:39;;;;;;;3.08;2.78;;;29.10;99.90;;;;;;4971267;28;20224;-85
2021/08/18 12:47:16;;;;;;;3.00;2.70;;;28.80;99.90;;;;;;4980779;28;20298;-84
2021/08/18 12:49:49;;;;;;;2.80;2.60;;;28.80;99.90;;;;;;4977812;28;20307;-85
2021/08/18 12:52:17;;;;;;;3.40;2.90;;;28.70;99.90;;;;;;4974747;28;20226;-83
2021/08/18 12:54:45;;;;;;;3.15;2.90;;;28.80;99.90;;;;;;4972957;28;20315;-84
2021/08/18 12:57:12;;;;;;;3.00;2.70;;;28.70;99.80;;;;;;4978995;28;20224;-84